sensor_id;sensor_type;location;lat;lon;timestamp;temperature;humidity
4461;DHT22;2243;48.812;9.232;2023-12-22T00:00:27;7.80;99.90
4461;DHT22;2243;48.812;9.232;2023-12-22T00:02:58;7.70;99.90
4461;DHT22;2243;48.812;9.232;2023-12-22T00:05:29;7.70;99.90
4461;DHT22;2243;48.812;9.232;2023-12-22T00:08:00;7.50;99.90
4461;DHT22;2243;48.812;9.232;2023-12-22T00:10:31;7.40;99.90
4461;DHT22;2243;48.812;9.232;2023-12-22T00:13:02;7.30;99.90
4461;DHT22;2243;48.812;9.232;2023-12-22T00:15:33;7.30;99.90
4461;DHT22;2243;48.812;9.232;2023-12-22T00:18:04;7.20;99.90
4461;DHT22;2243;48.812;9.232;2023-12-22T00:20:35;7.30;99.90
4461;DHT22;2243;48.812;9.232;2023-12-22T00:23:06;7.40;99.90
4461;DHT22;2243;48.812;9.232;2023-12-22T00:25:37;7.50;99.90
4461;DHT22;2243;48.812;9.232;2023-12-22T00:28:08;7.60;99.90
4461;DHT22;2243;48.812;9.232;2023-12-22T00:30:39;7.70;99.90
4461;DHT22;2243;48.812;9.232;2023-12-22T00:33:10;7.70;99.90
4461;DHT22;2243;48.812;9.232;2023-12-22T00:35:41;7.70;99.90
4461;DHT22;2243;48.812;9.232;2023-12-22T00:38:12;7.70;99.90
4461;DHT22;2243;48.812;9.232;2023-12-22T00:40:43;7.60;99.90
4461;DHT22;2243;48.812;9.232;2023-12-22T00:43:14;7.60;99.90
4461;DHT22;2243;48.812;9.232;2023-12-22T00:45:45;7.40;99.90
4461;DHT22;2243;48.812;9.232;2023-12-22T00:48:16;7.20;99.90
4461;DHT22;2243;48.812;9.232;2023-12-22T00:50:47;7.10;99.90
4461;DHT22;2243;48.812;9.232;2023-12-22T00:53:18;7.10;99.90
4461;DHT22;2243;48.812;9.232;2023-12-22T00:55:49;7.10;99.90
4461;DHT22;2243;48.812;9.232;2023-12-22T00:58:20;7.20;99.90
4461;DHT22;2243;48.812;9.232;2023-12-22T01:00:51;7.30;99.90
4461;DHT22;2243;48.812;9.232;2023-12-22T01:03:22;7.30;99.90
4461;DHT22;2243;48.812;9.232;2023-12-22T01:05:53;7.30;99.90
4461;DHT22;2243;48.812;9.232;2023-12-22T01:08:24;7.40;99.90
4461;DHT22;2243;48.812;9.232;2023-12-22T01:10:55;7.50;99.90
4461;DHT22;2243;48.812;9.232;2023-12-22T01:13:26;7.60;99.90
4461;DHT22;2243;48.812;9.232;2023-12-22T01:15:57;7.60;99.90
4461;DHT22;2243;48.812;9.232;2023-12-22T01:18:28;7.70;99.90
4461;DHT22;2243;48.812;9.232;2023-12-22T01:21:00;7.70;99.90
4461;DHT22;2243;48.812;9.232;2023-12-22T01:23:31;7.80;99.90
4461;DHT22;2243;48.812;9.232;2023-12-22T01:26:02;7.90;99.90
4461;DHT22;2243;48.812;9.232;2023-12-22T01:28:36;7.90;99.90
4461;DHT22;2243;48.812;9.232;2023-12-22T01:31:07;7.90;99.90
4461;DHT22;2243;48.812;9.232;2023-12-22T01:33:38;8.00;99.90
4461;DHT22;2243;48.812;9.232;2023-12-22T01:36:10;8.00;99.90
4461;DHT22;2243;48.812;9.232;2023-12-22T01:38:40;8.10;99.90
4461;DHT22;2243;48.812;9.232;2023-12-22T01:41:11;8.00;99.90
4461;DHT22;2243;48.812;9.232;2023-12-22T01:43:42;8.00;99.90
4461;DHT22;2243;48.812;9.232;2023-12-22T01:46:14;8.00;99.90
4461;DHT22;2243;48.812;9.232;2023-12-22T01:48:45;8.10;99.90
4461;DHT22;2243;48.812;9.232;2023-12-22T01:51:17;8.10;99.90
4461;DHT22;2243;48.812;9.232;2023-12-22T01:53:48;8.10;99.90
4461;DHT22;2243;48.812;9.232;2023-12-22T01:56:19;8.20;99.90
4461;DHT22;2243;48.812;9.232;2023-12-22T01:58:53;8.10;99.90
4461;DHT22;2243;48.812;9.232;2023-12-22T02:01:28;8.10;99.90
4461;DHT22;2243;48.812;9.232;2023-12-22T02:04:00;8.10;99.90
4461;DHT22;2243;48.812;9.232;2023-12-22T02:06:31;8.10;99.90
4461;DHT22;2243;48.812;9.232;2023-12-22T02:09:03;8.10;99.90
4461;DHT22;2243;48.812;9.232;2023-12-22T02:11:35;8.10;99.90
4461;DHT22;2243;48.812;9.232;2023-12-22T02:14:06;8.10;99.90
4461;DHT22;2243;48.812;9.232;2023-12-22T02:16:55;8.10;99.90
4461;DHT22;2243;48.812;9.232;2023-12-22T02:19:43;8.10;99.90
4461;DHT22;2243;48.812;9.232;2023-12-22T02:22:16;8.10;99.90
4461;DHT22;2243;48.812;9.232;2023-12-22T02:24:47;8.00;99.90
4461;DHT22;2243;48.812;9.232;2023-12-22T02:27:45;8.00;99.90
4461;DHT22;2243;48.812;9.232;2023-12-22T02:30:24;8.00;99.90
4461;DHT22;2243;48.812;9.232;2023-12-22T02:33:01;8.00;99.90
4461;DHT22;2243;48.812;9.232;2023-12-22T02:35:36;8.00;99.90
4461;DHT22;2243;48.812;9.232;2023-12-22T02:38:08;8.00;99.90
4461;DHT22;2243;48.812;9.232;2023-12-22T02:40:40;8.00;99.90
4461;DHT22;2243;48.812;9.232;2023-12-22T02:43:11;8.00;99.90
4461;DHT22;2243;48.812;9.232;2023-12-22T02:45:42;8.00;99.90
4461;DHT22;2243;48.812;9.232;2023-12-22T02:48:13;8.10;99.90
4461;DHT22;2243;48.812;9.232;2023-12-22T02:50:44;8.00;99.90
4461;DHT22;2243;48.812;9.232;2023-12-22T02:53:15;8.10;99.90
4461;DHT22;2243;48.812;9.232;2023-12-22T02:55:46;8.10;99.90
4461;DHT22;2243;48.812;9.232;2023-12-22T02:58:17;8.10;99.90
4461;DHT22;2243;48.812;9.232;2023-12-22T03:00:48;8.10;99.90
4461;DHT22;2243;48.812;9.232;2023-12-22T03:03:19;8.10;99.90
4461;DHT22;2243;48.812;9.232;2023-12-22T03:05:50;8.20;99.90
4461;DHT22;2243;48.812;9.232;2023-12-22T03:08:21;8.10;99.90
4461;DHT22;2243;48.812;9.232;2023-12-22T03:10:52;8.10;99.90
4461;DHT22;2243;48.812;9.232;2023-12-22T03:13:23;8.10;99.90
4461;DHT22;2243;48.812;9.232;2023-12-22T03:15:54;8.20;99.90
4461;DHT22;2243;48.812;9.232;2023-12-22T03:18:26;8.20;99.90
4461;DHT22;2243;48.812;9.232;2023-12-22T03:20:57;8.20;99.90
4461;DHT22;2243;48.812;9.232;2023-12-22T03:23:28;8.20;99.90
4461;DHT22;2243;48.812;9.232;2023-12-22T03:26:03;8.30;99.90
4461;DHT22;2243;48.812;9.232;2023-12-22T03:28:34;8.30;99.90
4461;DHT22;2243;48.812;9.232;2023-12-22T03:31:05;8.30;99.90
4461;DHT22;2243;48.812;9.232;2023-12-22T03:33:37;8.30;99.90
4461;DHT22;2243;48.812;9.232;2023-12-22T03:36:08;8.40;99.90
4461;DHT22;2243;48.812;9.232;2023-12-22T03:38:39;8.40;99.90
4461;DHT22;2243;48.812;9.232;2023-12-22T03:41:10;8.40;99.90
4461;DHT22;2243;48.812;9.232;2023-12-22T03:43:41;8.40;99.90
4461;DHT22;2243;48.812;9.232;2023-12-22T03:46:12;8.50;99.90
4461;DHT22;2243;48.812;9.232;2023-12-22T03:48:43;8.40;99.90
4461;DHT22;2243;48.812;9.232;2023-12-22T03:51:14;8.30;99.90
4461;DHT22;2243;48.812;9.232;2023-12-22T03:53:45;8.40;99.90
4461;DHT22;2243;48.812;9.232;2023-12-22T03:56:16;8.40;99.90
4461;DHT22;2243;48.812;9.232;2023-12-22T03:58:47;8.40;99.90
4461;DHT22;2243;48.812;9.232;2023-12-22T04:01:18;8.40;99.90
4461;DHT22;2243;48.812;9.232;2023-12-22T04:03:49;8.40;99.90
4461;DHT22;2243;48.812;9.232;2023-12-22T04:06:20;8.30;99.90
4461;DHT22;2243;48.812;9.232;2023-12-22T04:08:51;7.90;99.90
4461;DHT22;2243;48.812;9.232;2023-12-22T04:11:23;7.60;99.90
4461;DHT22;2243;48.812;9.232;2023-12-22T04:13:54;7.30;99.90
4461;DHT22;2243;48.812;9.232;2023-12-22T04:16:25;7.10;99.90
4461;DHT22;2243;48.812;9.232;2023-12-22T04:18:55;7.00;99.90
4461;DHT22;2243;48.812;9.232;2023-12-22T04:21:26;7.00;99.90
4461;DHT22;2243;48.812;9.232;2023-12-22T04:23:57;6.90;99.90
4461;DHT22;2243;48.812;9.232;2023-12-22T04:26:28;6.80;99.90
4461;DHT22;2243;48.812;9.232;2023-12-22T04:28:59;6.80;99.90
4461;DHT22;2243;48.812;9.232;2023-12-22T04:31:30;6.70;99.90
4461;DHT22;2243;48.812;9.232;2023-12-22T04:34:01;6.80;99.90
4461;DHT22;2243;48.812;9.232;2023-12-22T04:36:32;6.80;99.90
4461;DHT22;2243;48.812;9.232;2023-12-22T04:39:03;6.90;99.90
4461;DHT22;2243;48.812;9.232;2023-12-22T04:41:34;7.00;99.90
4461;DHT22;2243;48.812;9.232;2023-12-22T04:44:05;7.20;99.90
4461;DHT22;2243;48.812;9.232;2023-12-22T04:46:36;7.30;99.90
4461;DHT22;2243;48.812;9.232;2023-12-22T04:49:07;7.40;99.90
4461;DHT22;2243;48.812;9.232;2023-12-22T04:51:38;7.50;99.90
4461;DHT22;2243;48.812;9.232;2023-12-22T04:54:09;7.60;99.90
4461;DHT22;2243;48.812;9.232;2023-12-22T04:56:40;7.70;99.90
4461;DHT22;2243;48.812;9.232;2023-12-22T04:59:11;7.70;99.90
4461;DHT22;2243;48.812;9.232;2023-12-22T05:01:42;7.80;99.90
4461;DHT22;2243;48.812;9.232;2023-12-22T05:04:13;7.70;99.90
4461;DHT22;2243;48.812;9.232;2023-12-22T05:06:44;7.80;99.90
4461;DHT22;2243;48.812;9.232;2023-12-22T05:09:16;7.80;99.90
4461;DHT22;2243;48.812;9.232;2023-12-22T05:11:47;7.80;99.90
4461;DHT22;2243;48.812;9.232;2023-12-22T05:14:18;7.80;99.90
4461;DHT22;2243;48.812;9.232;2023-12-22T05:16:49;7.90;99.90
4461;DHT22;2243;48.812;9.232;2023-12-22T05:19:21;7.90;99.90
4461;DHT22;2243;48.812;9.232;2023-12-22T05:21:52;7.90;99.90
4461;DHT22;2243;48.812;9.232;2023-12-22T05:24:26;7.90;99.90
4461;DHT22;2243;48.812;9.232;2023-12-22T05:26:58;7.90;99.90
4461;DHT22;2243;48.812;9.232;2023-12-22T05:29:28;7.90;99.90
4461;DHT22;2243;48.812;9.232;2023-12-22T05:32:00;8.00;99.90
4461;DHT22;2243;48.812;9.232;2023-12-22T05:34:31;7.90;99.90
4461;DHT22;2243;48.812;9.232;2023-12-22T05:37:02;8.00;99.90
4461;DHT22;2243;48.812;9.232;2023-12-22T05:39:34;8.00;99.90
4461;DHT22;2243;48.812;9.232;2023-12-22T05:42:05;7.90;99.90
4461;DHT22;2243;48.812;9.232;2023-12-22T05:44:37;7.70;99.90
4461;DHT22;2243;48.812;9.232;2023-12-22T05:47:09;7.60;99.90
4461;DHT22;2243;48.812;9.232;2023-12-22T05:49:41;7.50;99.90
4461;DHT22;2243;48.812;9.232;2023-12-22T05:52:12;7.40;99.90
4461;DHT22;2243;48.812;9.232;2023-12-22T05:54:43;7.50;99.90
4461;DHT22;2243;48.812;9.232;2023-12-22T05:57:14;7.50;99.90
4461;DHT22;2243;48.812;9.232;2023-12-22T05:59:45;7.60;99.90
4461;DHT22;2243;48.812;9.232;2023-12-22T06:02:16;7.70;99.90
4461;DHT22;2243;48.812;9.232;2023-12-22T06:04:47;7.90;99.90
4461;DHT22;2243;48.812;9.232;2023-12-22T06:07:18;8.00;99.90
4461;DHT22;2243;48.812;9.232;2023-12-22T06:09:50;8.10;99.90
4461;DHT22;2243;48.812;9.232;2023-12-22T06:12:21;8.20;99.90
4461;DHT22;2243;48.812;9.232;2023-12-22T06:14:52;8.20;99.90
4461;DHT22;2243;48.812;9.232;2023-12-22T06:17:23;8.20;99.90
4461;DHT22;2243;48.812;9.232;2023-12-22T06:19:53;8.30;99.90
4461;DHT22;2243;48.812;9.232;2023-12-22T06:22:24;8.30;99.90
4461;DHT22;2243;48.812;9.232;2023-12-22T06:24:55;8.30;99.90
4461;DHT22;2243;48.812;9.232;2023-12-22T06:27:26;8.30;99.90
4461;DHT22;2243;48.812;9.232;2023-12-22T06:29:57;8.30;99.90
4461;DHT22;2243;48.812;9.232;2023-12-22T06:32:28;8.30;99.90
4461;DHT22;2243;48.812;9.232;2023-12-22T06:34:59;8.40;99.90
4461;DHT22;2243;48.812;9.232;2023-12-22T06:37:31;8.40;99.90
4461;DHT22;2243;48.812;9.232;2023-12-22T06:40:02;8.50;99.90
4461;DHT22;2243;48.812;9.232;2023-12-22T06:42:33;8.40;99.90
4461;DHT22;2243;48.812;9.232;2023-12-22T06:45:04;8.40;99.90
4461;DHT22;2243;48.812;9.232;2023-12-22T06:47:36;8.40;99.90
4461;DHT22;2243;48.812;9.232;2023-12-22T06:50:07;8.40;99.90
4461;DHT22;2243;48.812;9.232;2023-12-22T06:52:38;8.40;99.90
4461;DHT22;2243;48.812;9.232;2023-12-22T06:55:10;8.40;99.90
4461;DHT22;2243;48.812;9.232;2023-12-22T06:57:42;8.50;99.90
4461;DHT22;2243;48.812;9.232;2023-12-22T07:00:15;8.50;99.90
4461;DHT22;2243;48.812;9.232;2023-12-22T07:02:46;8.50;99.90
4461;DHT22;2243;48.812;9.232;2023-12-22T07:07:51;8.50;99.90
4461;DHT22;2243;48.812;9.232;2023-12-22T07:10:23;8.50;99.90
4461;DHT22;2243;48.812;9.232;2023-12-22T07:12:54;8.50;99.90
4461;DHT22;2243;48.812;9.232;2023-12-22T07:15:25;8.50;99.90
4461;DHT22;2243;48.812;9.232;2023-12-22T07:17:55;8.50;99.90
4461;DHT22;2243;48.812;9.232;2023-12-22T07:20:27;8.50;99.90
4461;DHT22;2243;48.812;9.232;2023-12-22T07:22:57;8.50;99.90
4461;DHT22;2243;48.812;9.232;2023-12-22T07:25:28;8.50;99.90
4461;DHT22;2243;48.812;9.232;2023-12-22T07:28:00;8.50;99.90
4461;DHT22;2243;48.812;9.232;2023-12-22T07:30:32;8.50;99.90
4461;DHT22;2243;48.812;9.232;2023-12-22T07:33:05;8.40;99.90
4461;DHT22;2243;48.812;9.232;2023-12-22T07:35:36;8.40;99.90
4461;DHT22;2243;48.812;9.232;2023-12-22T07:38:07;8.50;99.90
4461;DHT22;2243;48.812;9.232;2023-12-22T07:40:39;8.50;99.90
4461;DHT22;2243;48.812;9.232;2023-12-22T07:43:10;8.50;99.90
4461;DHT22;2243;48.812;9.232;2023-12-22T07:45:41;8.50;99.90
4461;DHT22;2243;48.812;9.232;2023-12-22T07:48:12;8.50;99.90
4461;DHT22;2243;48.812;9.232;2023-12-22T07:50:44;8.50;99.90
4461;DHT22;2243;48.812;9.232;2023-12-22T07:53:16;8.50;99.90
4461;DHT22;2243;48.812;9.232;2023-12-22T07:55:47;8.50;99.90
4461;DHT22;2243;48.812;9.232;2023-12-22T07:58:18;8.50;99.90
4461;DHT22;2243;48.812;9.232;2023-12-22T08:00:50;8.50;99.90
4461;DHT22;2243;48.812;9.232;2023-12-22T08:03:21;8.50;99.90
4461;DHT22;2243;48.812;9.232;2023-12-22T08:05:52;8.50;99.90
4461;DHT22;2243;48.812;9.232;2023-12-22T08:08:23;8.30;99.90
4461;DHT22;2243;48.812;9.232;2023-12-22T08:10:54;7.90;99.90
4461;DHT22;2243;48.812;9.232;2023-12-22T08:13:25;7.60;99.90
4461;DHT22;2243;48.812;9.232;2023-12-22T08:15:57;7.50;99.90
4461;DHT22;2243;48.812;9.232;2023-12-22T08:18:28;7.50;99.90
4461;DHT22;2243;48.812;9.232;2023-12-22T08:20:59;7.30;99.90
4461;DHT22;2243;48.812;9.232;2023-12-22T08:23:37;7.30;99.90
4461;DHT22;2243;48.812;9.232;2023-12-22T08:26:16;7.20;99.90
4461;DHT22;2243;48.812;9.232;2023-12-22T08:28:50;7.00;99.90
4461;DHT22;2243;48.812;9.232;2023-12-22T08:31:21;7.00;99.90
4461;DHT22;2243;48.812;9.232;2023-12-22T08:33:52;6.90;99.90
4461;DHT22;2243;48.812;9.232;2023-12-22T08:36:23;6.90;99.90
4461;DHT22;2243;48.812;9.232;2023-12-22T08:38:54;7.00;99.90
4461;DHT22;2243;48.812;9.232;2023-12-22T08:41:25;7.00;99.90
4461;DHT22;2243;48.812;9.232;2023-12-22T08:43:57;6.90;99.90
4461;DHT22;2243;48.812;9.232;2023-12-22T08:46:28;6.90;99.90
4461;DHT22;2243;48.812;9.232;2023-12-22T08:49:00;7.00;99.90
4461;DHT22;2243;48.812;9.232;2023-12-22T08:51:31;7.00;99.90
4461;DHT22;2243;48.812;9.232;2023-12-22T08:54:02;7.00;99.90
4461;DHT22;2243;48.812;9.232;2023-12-22T08:56:35;6.90;99.90
4461;DHT22;2243;48.812;9.232;2023-12-22T08:59:06;7.00;99.90
4461;DHT22;2243;48.812;9.232;2023-12-22T09:01:39;6.90;99.90
4461;DHT22;2243;48.812;9.232;2023-12-22T09:04:11;7.00;99.90
4461;DHT22;2243;48.812;9.232;2023-12-22T09:06:42;7.10;99.90
4461;DHT22;2243;48.812;9.232;2023-12-22T09:09:13;7.20;99.90
4461;DHT22;2243;48.812;9.232;2023-12-22T09:11:44;7.40;99.90
4461;DHT22;2243;48.812;9.232;2023-12-22T09:14:15;7.50;99.90
4461;DHT22;2243;48.812;9.232;2023-12-22T09:16:46;7.70;99.90
4461;DHT22;2243;48.812;9.232;2023-12-22T09:19:17;7.80;99.90
4461;DHT22;2243;48.812;9.232;2023-12-22T09:21:48;7.90;99.90
4461;DHT22;2243;48.812;9.232;2023-12-22T09:24:19;8.00;99.90
4461;DHT22;2243;48.812;9.232;2023-12-22T09:26:50;8.00;99.90
4461;DHT22;2243;48.812;9.232;2023-12-22T09:29:21;8.10;99.90
4461;DHT22;2243;48.812;9.232;2023-12-22T09:31:52;8.10;99.90
4461;DHT22;2243;48.812;9.232;2023-12-22T09:34:26;8.20;99.90
4461;DHT22;2243;48.812;9.232;2023-12-22T09:36:58;8.20;99.90
4461;DHT22;2243;48.812;9.232;2023-12-22T09:39:29;8.20;99.90
4461;DHT22;2243;48.812;9.232;2023-12-22T09:42:00;8.20;99.90
4461;DHT22;2243;48.812;9.232;2023-12-22T09:44:32;8.20;99.90
4461;DHT22;2243;48.812;9.232;2023-12-22T09:47:06;8.30;99.90
4461;DHT22;2243;48.812;9.232;2023-12-22T09:49:39;8.40;99.90
4461;DHT22;2243;48.812;9.232;2023-12-22T09:52:11;8.30;99.90
4461;DHT22;2243;48.812;9.232;2023-12-22T09:54:44;8.40;99.90
4461;DHT22;2243;48.812;9.232;2023-12-22T09:57:16;8.40;99.90
4461;DHT22;2243;48.812;9.232;2023-12-22T09:59:59;8.40;99.90
4461;DHT22;2243;48.812;9.232;2023-12-22T10:02:31;8.40;99.90
4461;DHT22;2243;48.812;9.232;2023-12-22T10:05:04;8.40;99.90
4461;DHT22;2243;48.812;9.232;2023-12-22T10:07:35;8.50;99.90
4461;DHT22;2243;48.812;9.232;2023-12-22T10:10:07;8.50;99.90
4461;DHT22;2243;48.812;9.232;2023-12-22T10:12:41;8.50;99.90
4461;DHT22;2243;48.812;9.232;2023-12-22T10:15:12;8.50;99.90
4461;DHT22;2243;48.812;9.232;2023-12-22T10:17:44;8.60;99.90
4461;DHT22;2243;48.812;9.232;2023-12-22T10:20:15;8.60;99.90
4461;DHT22;2243;48.812;9.232;2023-12-22T10:22:46;8.60;99.90
4461;DHT22;2243;48.812;9.232;2023-12-22T10:25:20;8.50;99.90
4461;DHT22;2243;48.812;9.232;2023-12-22T10:27:53;8.60;99.90
4461;DHT22;2243;48.812;9.232;2023-12-22T10:30:24;8.60;99.90
4461;DHT22;2243;48.812;9.232;2023-12-22T10:32:55;8.60;99.90
4461;DHT22;2243;48.812;9.232;2023-12-22T10:35:27;8.70;99.90
4461;DHT22;2243;48.812;9.232;2023-12-22T10:37:58;8.70;99.90
4461;DHT22;2243;48.812;9.232;2023-12-22T10:40:37;8.70;99.90
4461;DHT22;2243;48.812;9.232;2023-12-22T10:43:08;8.80;99.90
4461;DHT22;2243;48.812;9.232;2023-12-22T10:45:40;8.80;99.90
4461;DHT22;2243;48.812;9.232;2023-12-22T10:48:11;8.70;99.90
4461;DHT22;2243;48.812;9.232;2023-12-22T10:50:43;8.80;99.90
4461;DHT22;2243;48.812;9.232;2023-12-22T10:53:14;8.80;99.90
4461;DHT22;2243;48.812;9.232;2023-12-22T10:55:48;8.80;99.90
4461;DHT22;2243;48.812;9.232;2023-12-22T10:58:21;8.80;99.90
4461;DHT22;2243;48.812;9.232;2023-12-22T11:00:52;8.80;99.90
4461;DHT22;2243;48.812;9.232;2023-12-22T11:03:24;8.80;99.90
4461;DHT22;2243;48.812;9.232;2023-12-22T11:05:58;8.80;99.90
4461;DHT22;2243;48.812;9.232;2023-12-22T11:08:31;8.90;99.90
4461;DHT22;2243;48.812;9.232;2023-12-22T11:11:16;8.90;99.90
4461;DHT22;2243;48.812;9.232;2023-12-22T11:13:55;8.90;99.90
4461;DHT22;2243;48.812;9.232;2023-12-22T11:16:31;8.80;99.90
4461;DHT22;2243;48.812;9.232;2023-12-22T11:19:04;8.80;99.90
4461;DHT22;2243;48.812;9.232;2023-12-22T11:21:36;8.80;99.90
4461;DHT22;2243;48.812;9.232;2023-12-22T11:24:08;8.70;99.90
4461;DHT22;2243;48.812;9.232;2023-12-22T11:26:41;8.70;99.90
4461;DHT22;2243;48.812;9.232;2023-12-22T11:29:14;8.70;99.90
4461;DHT22;2243;48.812;9.232;2023-12-22T11:31:50;8.60;99.90
4461;DHT22;2243;48.812;9.232;2023-12-22T11:34:22;8.50;99.90
4461;DHT22;2243;48.812;9.232;2023-12-22T11:36:57;8.50;99.90
4461;DHT22;2243;48.812;9.232;2023-12-22T11:39:29;8.50;99.90
4461;DHT22;2243;48.812;9.232;2023-12-22T11:42:01;8.40;99.90
4461;DHT22;2243;48.812;9.232;2023-12-22T11:44:34;8.40;99.90
4461;DHT22;2243;48.812;9.232;2023-12-22T11:47:09;8.40;99.90
4461;DHT22;2243;48.812;9.232;2023-12-22T11:49:42;8.50;99.90
4461;DHT22;2243;48.812;9.232;2023-12-22T11:52:14;8.40;99.90
4461;DHT22;2243;48.812;9.232;2023-12-22T11:57:50;8.30;99.90
4461;DHT22;2243;48.812;9.232;2023-12-22T12:02:55;8.20;99.90
4461;DHT22;2243;48.812;9.232;2023-12-22T12:05:27;8.10;99.90
4461;DHT22;2243;48.812;9.232;2023-12-22T12:08:06;8.00;99.90
4461;DHT22;2243;48.812;9.232;2023-12-22T12:10:54;8.00;99.90
4461;DHT22;2243;48.812;9.232;2023-12-22T12:13:26;7.90;99.90
4461;DHT22;2243;48.812;9.232;2023-12-22T12:15:59;7.90;99.90
4461;DHT22;2243;48.812;9.232;2023-12-22T12:18:32;8.00;99.90
4461;DHT22;2243;48.812;9.232;2023-12-22T12:21:09;8.00;99.90
4461;DHT22;2243;48.812;9.232;2023-12-22T12:23:42;8.10;99.90
4461;DHT22;2243;48.812;9.232;2023-12-22T12:26:13;8.10;99.90
4461;DHT22;2243;48.812;9.232;2023-12-22T12:28:46;8.10;99.90
4461;DHT22;2243;48.812;9.232;2023-12-22T12:31:18;8.20;99.90
4461;DHT22;2243;48.812;9.232;2023-12-22T12:33:49;8.20;99.90
4461;DHT22;2243;48.812;9.232;2023-12-22T12:36:20;8.30;99.90
4461;DHT22;2243;48.812;9.232;2023-12-22T12:38:55;8.30;99.90
4461;DHT22;2243;48.812;9.232;2023-12-22T12:41:32;8.30;99.90
4461;DHT22;2243;48.812;9.232;2023-12-22T12:44:08;8.40;99.90
4461;DHT22;2243;48.812;9.232;2023-12-22T12:46:41;8.40;99.90
4461;DHT22;2243;48.812;9.232;2023-12-22T12:49:15;8.50;99.90
4461;DHT22;2243;48.812;9.232;2023-12-22T12:51:47;8.40;99.90
4461;DHT22;2243;48.812;9.232;2023-12-22T12:54:19;8.40;99.90
4461;DHT22;2243;48.812;9.232;2023-12-22T12:56:50;8.50;99.90
4461;DHT22;2243;48.812;9.232;2023-12-22T12:59:22;8.40;99.90
4461;DHT22;2243;48.812;9.232;2023-12-22T13:01:53;8.40;99.90
4461;DHT22;2243;48.812;9.232;2023-12-22T13:04:36;8.40;99.90
4461;DHT22;2243;48.812;9.232;2023-12-22T13:07:08;8.50;99.90
4461;DHT22;2243;48.812;9.232;2023-12-22T13:09:43;8.50;99.90
4461;DHT22;2243;48.812;9.232;2023-12-22T13:12:15;8.50;99.90
4461;DHT22;2243;48.812;9.232;2023-12-22T13:14:46;8.60;99.90
4461;DHT22;2243;48.812;9.232;2023-12-22T13:17:16;8.70;99.90
4461;DHT22;2243;48.812;9.232;2023-12-22T13:19:48;8.70;99.90
4461;DHT22;2243;48.812;9.232;2023-12-22T13:22:20;8.80;99.90
4461;DHT22;2243;48.812;9.232;2023-12-22T13:24:56;8.80;99.90
4461;DHT22;2243;48.812;9.232;2023-12-22T13:27:28;8.90;99.90
4461;DHT22;2243;48.812;9.232;2023-12-22T13:29:59;9.00;99.90
4461;DHT22;2243;48.812;9.232;2023-12-22T13:32:30;9.10;99.90
4461;DHT22;2243;48.812;9.232;2023-12-22T13:35:01;9.20;99.90
4461;DHT22;2243;48.812;9.232;2023-12-22T13:37:33;9.40;99.90
4461;DHT22;2243;48.812;9.232;2023-12-22T13:40:07;9.40;99.90
4461;DHT22;2243;48.812;9.232;2023-12-22T13:42:39;9.50;99.90
4461;DHT22;2243;48.812;9.232;2023-12-22T13:45:11;9.60;99.90
4461;DHT22;2243;48.812;9.232;2023-12-22T13:47:43;9.60;99.90
4461;DHT22;2243;48.812;9.232;2023-12-22T13:50:18;9.60;99.90
4461;DHT22;2243;48.812;9.232;2023-12-22T13:52:51;9.70;99.90
4461;DHT22;2243;48.812;9.232;2023-12-22T13:55:22;9.70;99.90
4461;DHT22;2243;48.812;9.232;2023-12-22T13:58:00;9.80;99.90
4461;DHT22;2243;48.812;9.232;2023-12-22T14:00:32;9.80;99.90
4461;DHT22;2243;48.812;9.232;2023-12-22T14:03:03;9.80;99.90
4461;DHT22;2243;48.812;9.232;2023-12-22T14:05:34;9.90;99.90
4461;DHT22;2243;48.812;9.232;2023-12-22T14:08:06;9.90;99.90
4461;DHT22;2243;48.812;9.232;2023-12-22T14:10:37;9.90;99.90
4461;DHT22;2243;48.812;9.232;2023-12-22T14:13:08;10.00;99.90
4461;DHT22;2243;48.812;9.232;2023-12-22T14:15:39;10.10;99.90
4461;DHT22;2243;48.812;9.232;2023-12-22T14:18:15;10.10;99.90
4461;DHT22;2243;48.812;9.232;2023-12-22T14:20:46;10.10;99.90
4461;DHT22;2243;48.812;9.232;2023-12-22T14:23:17;10.10;99.90
4461;DHT22;2243;48.812;9.232;2023-12-22T14:25:48;10.00;99.90
4461;DHT22;2243;48.812;9.232;2023-12-22T14:28:19;10.10;99.90
4461;DHT22;2243;48.812;9.232;2023-12-22T14:30:51;10.10;99.90
4461;DHT22;2243;48.812;9.232;2023-12-22T14:33:23;10.20;99.90
4461;DHT22;2243;48.812;9.232;2023-12-22T14:35:54;10.10;99.90
4461;DHT22;2243;48.812;9.232;2023-12-22T14:38:25;10.10;99.90
4461;DHT22;2243;48.812;9.232;2023-12-22T14:40:56;10.10;99.90
4461;DHT22;2243;48.812;9.232;2023-12-22T14:43:27;10.10;99.90
4461;DHT22;2243;48.812;9.232;2023-12-22T14:45:59;10.10;99.90
4461;DHT22;2243;48.812;9.232;2023-12-22T14:48:30;10.20;99.90
4461;DHT22;2243;48.812;9.232;2023-12-22T14:51:02;10.20;99.90
4461;DHT22;2243;48.812;9.232;2023-12-22T14:53:34;10.20;99.90
4461;DHT22;2243;48.812;9.232;2023-12-22T14:56:05;10.20;99.90
4461;DHT22;2243;48.812;9.232;2023-12-22T14:58:36;10.30;99.90
4461;DHT22;2243;48.812;9.232;2023-12-22T15:01:12;10.20;99.90
4461;DHT22;2243;48.812;9.232;2023-12-22T15:03:44;10.20;99.90
4461;DHT22;2243;48.812;9.232;2023-12-22T15:06:16;10.20;99.90
4461;DHT22;2243;48.812;9.232;2023-12-22T15:08:47;10.20;99.90
4461;DHT22;2243;48.812;9.232;2023-12-22T15:11:18;10.20;99.90
4461;DHT22;2243;48.812;9.232;2023-12-22T15:13:49;10.20;99.90
4461;DHT22;2243;48.812;9.232;2023-12-22T15:16:20;10.20;99.90
4461;DHT22;2243;48.812;9.232;2023-12-22T15:18:53;10.10;99.90
4461;DHT22;2243;48.812;9.232;2023-12-22T15:21:24;10.10;99.90
4461;DHT22;2243;48.812;9.232;2023-12-22T15:23:55;10.10;99.90
4461;DHT22;2243;48.812;9.232;2023-12-22T15:26:28;10.10;99.90
4461;DHT22;2243;48.812;9.232;2023-12-22T15:29:00;10.10;99.90
4461;DHT22;2243;48.812;9.232;2023-12-22T15:31:32;10.10;99.90
4461;DHT22;2243;48.812;9.232;2023-12-22T15:34:07;10.10;99.90
4461;DHT22;2243;48.812;9.232;2023-12-22T15:36:38;10.10;99.90
4461;DHT22;2243;48.812;9.232;2023-12-22T15:39:09;10.20;99.90
4461;DHT22;2243;48.812;9.232;2023-12-22T15:41:40;10.20;99.90
4461;DHT22;2243;48.812;9.232;2023-12-22T15:44:11;10.20;99.90
4461;DHT22;2243;48.812;9.232;2023-12-22T15:46:42;10.20;99.90
4461;DHT22;2243;48.812;9.232;2023-12-22T15:49:13;10.20;99.90
4461;DHT22;2243;48.812;9.232;2023-12-22T15:51:47;10.10;99.90
4461;DHT22;2243;48.812;9.232;2023-12-22T15:54:21;10.20;99.90
4461;DHT22;2243;48.812;9.232;2023-12-22T15:56:52;10.10;99.90
4461;DHT22;2243;48.812;9.232;2023-12-22T15:59:23;10.20;99.90
4461;DHT22;2243;48.812;9.232;2023-12-22T16:01:56;10.20;99.90
4461;DHT22;2243;48.812;9.232;2023-12-22T16:04:28;10.30;99.90
4461;DHT22;2243;48.812;9.232;2023-12-22T16:07:00;10.30;99.90
4461;DHT22;2243;48.812;9.232;2023-12-22T16:09:36;10.30;99.90
4461;DHT22;2243;48.812;9.232;2023-12-22T16:12:08;10.30;99.90
4461;DHT22;2243;48.812;9.232;2023-12-22T16:14:39;10.30;99.90
4461;DHT22;2243;48.812;9.232;2023-12-22T16:17:10;10.40;99.90
4461;DHT22;2243;48.812;9.232;2023-12-22T16:19:41;10.40;99.90
4461;DHT22;2243;48.812;9.232;2023-12-22T16:22:12;10.50;99.90
4461;DHT22;2243;48.812;9.232;2023-12-22T16:24:43;10.50;99.90
4461;DHT22;2243;48.812;9.232;2023-12-22T16:27:14;10.50;99.90
4461;DHT22;2243;48.812;9.232;2023-12-22T16:29:47;10.50;99.90
4461;DHT22;2243;48.812;9.232;2023-12-22T16:32:18;10.50;99.90
4461;DHT22;2243;48.812;9.232;2023-12-22T16:34:50;10.40;99.90
4461;DHT22;2243;48.812;9.232;2023-12-22T16:37:21;10.50;99.90
4461;DHT22;2243;48.812;9.232;2023-12-22T16:39:53;10.50;99.90
4461;DHT22;2243;48.812;9.232;2023-12-22T16:42:24;10.50;99.90
4461;DHT22;2243;48.812;9.232;2023-12-22T16:44:57;10.40;99.90
4461;DHT22;2243;48.812;9.232;2023-12-22T16:47:37;10.40;99.90
4461;DHT22;2243;48.812;9.232;2023-12-22T16:50:09;10.50;99.90
4461;DHT22;2243;48.812;9.232;2023-12-22T16:52:43;10.40;99.90